sensor_id;sensor_type;location;lat;lon;timestamp;pressure;altitude;pressure_sealevel;temperature;humidity
77867;BME280;67271;59.120;37.970;2023-08-31T00:03:29;100112.16;;;13.67;83.02
77867;BME280;67271;59.120;37.970;2023-08-31T00:05:55;100104.00;;;13.67;83.13
77867;BME280;67271;59.120;37.970;2023-08-31T00:08:22;100102.13;;;13.67;82.78
77867;BME280;67271;59.120;37.970;2023-08-31T00:10:56;100104.59;;;13.69;82.86
77867;BME280;67271;59.120;37.970;2023-08-31T00:13:22;100097.94;;;13.65;82.84
77867;BME280;67271;59.120;37.970;2023-08-31T00:15:47;100090.66;;;13.59;83.00
77867;BME280;67271;59.120;37.970;2023-08-31T00:18:14;100095.09;;;13.53;83.22
77867;BME280;67271;59.120;37.970;2023-08-31T00:20:42;100094.25;;;13.46;83.14
77867;BME280;67271;59.120;37.970;2023-08-31T00:23:08;100088.63;;;13.41;83.17
77867;BME280;67271;59.120;37.970;2023-08-31T00:25:34;100089.91;;;13.38;83.44
77867;BME280;67271;59.120;37.970;2023-08-31T00:27:59;100093.50;;;13.32;83.61
77867;BME280;67271;59.120;37.970;2023-08-31T00:30:33;100090.38;;;13.29;83.94
77867;BME280;67271;59.120;37.970;2023-08-31T00:32:59;100092.25;;;13.28;83.79
77867;BME280;67271;59.120;37.970;2023-08-31T00:35:27;100087.03;;;13.27;83.63
77867;BME280;67271;59.120;37.970;2023-08-31T00:37:54;100098.13;;;13.25;83.75
77867;BME280;67271;59.120;37.970;2023-08-31T00:40:27;100086.63;;;13.23;83.81
77867;BME280;67271;59.120;37.970;2023-08-31T00:43:05;100093.72;;;13.24;83.89
77867;BME280;67271;59.120;37.970;2023-08-31T00:45:31;100088.09;;;13.26;83.80
77867;BME280;67271;59.120;37.970;2023-08-31T00:47:56;100082.44;;;13.27;83.70
77867;BME280;67271;59.120;37.970;2023-08-31T00:50:22;100082.44;;;13.27;83.64
77867;BME280;67271;59.120;37.970;2023-08-31T00:52:48;100085.16;;;13.27;83.56
77867;BME280;67271;59.120;37.970;2023-08-31T00:55:14;100086.19;;;13.26;83.50
77867;BME280;67271;59.120;37.970;2023-08-31T00:57:43;100081.19;;;13.23;83.62
77867;BME280;67271;59.120;37.970;2023-08-31T01:00:10;100080.78;;;13.20;83.83
77867;BME280;67271;59.120;37.970;2023-08-31T01:05:46;100093.75;;;13.11;84.04
77867;BME280;67271;59.120;37.970;2023-08-31T01:08:22;100093.78;;;13.04;83.94
77867;BME280;67271;59.120;37.970;2023-08-31T01:13:32;100106.13;;;12.94;83.97
77867;BME280;67271;59.120;37.970;2023-08-31T01:16:03;100108.25;;;12.92;84.31
77867;BME280;67271;59.120;37.970;2023-08-31T01:18:30;100113.88;;;12.90;84.26
77867;BME280;67271;59.120;37.970;2023-08-31T01:21:24;100110.53;;;12.88;84.27
77867;BME280;67271;59.120;37.970;2023-08-31T01:23:52;100108.03;;;12.87;84.59
77867;BME280;67271;59.120;37.970;2023-08-31T01:26:19;100108.84;;;12.87;83.97
77867;BME280;67271;59.120;37.970;2023-08-31T01:28:47;100110.97;;;12.85;84.29
77867;BME280;67271;59.120;37.970;2023-08-31T01:31:14;100116.81;;;12.82;84.46
77867;BME280;67271;59.120;37.970;2023-08-31T01:33:41;100121.63;;;12.80;84.63
77867;BME280;67271;59.120;37.970;2023-08-31T01:36:28;100122.44;;;12.80;84.46
77867;BME280;67271;59.120;37.970;2023-08-31T01:39:01;100125.16;;;12.80;84.50
77867;BME280;67271;59.120;37.970;2023-08-31T01:41:32;100115.56;;;12.78;84.28
77867;BME280;67271;59.120;37.970;2023-08-31T01:44:00;100113.91;;;12.77;84.41
77867;BME280;67271;59.120;37.970;2023-08-31T01:46:27;100114.75;;;12.77;84.54
77867;BME280;67271;59.120;37.970;2023-08-31T01:48:53;100120.19;;;12.77;84.50
77867;BME280;67271;59.120;37.970;2023-08-31T01:51:19;100127.69;;;12.75;84.38
77867;BME280;67271;59.120;37.970;2023-08-31T01:53:45;100132.50;;;12.73;84.49
77867;BME280;67271;59.120;37.970;2023-08-31T01:56:11;100123.31;;;12.74;84.63
77867;BME280;67271;59.120;37.970;2023-08-31T01:58:39;100126.03;;;12.74;84.64
77867;BME280;67271;59.120;37.970;2023-08-31T02:01:05;100129.78;;;12.73;84.92
77867;BME280;67271;59.120;37.970;2023-08-31T02:03:31;100138.97;;;12.72;84.68
77867;BME280;67271;59.120;37.970;2023-08-31T02:05:57;100147.31;;;12.71;84.71
77867;BME280;67271;59.120;37.970;2023-08-31T02:08:23;100148.16;;;12.71;84.62
77867;BME280;67271;59.120;37.970;2023-08-31T02:10:50;100138.56;;;12.69;84.58
77867;BME280;67271;59.120;37.970;2023-08-31T02:13:22;100144.00;;;12.69;84.71
77867;BME280;67271;59.120;37.970;2023-08-31T02:15:51;100141.28;;;12.69;84.81
77867;BME280;67271;59.120;37.970;2023-08-31T02:18:19;100148.38;;;12.70;84.87
77867;BME280;67271;59.120;37.970;2023-08-31T02:20:45;100157.38;;;12.70;84.81
77867;BME280;67271;59.120;37.970;2023-08-31T02:23:11;100155.69;;;12.69;84.66
77867;BME280;67271;59.120;37.970;2023-08-31T02:25:38;100139.59;;;12.68;84.88
77867;BME280;67271;59.120;37.970;2023-08-31T02:28:04;100141.50;;;12.67;84.87
77867;BME280;67271;59.120;37.970;2023-08-31T02:30:30;100144.00;;;12.69;84.90
77867;BME280;67271;59.120;37.970;2023-08-31T02:32:56;100153.59;;;12.71;85.05
77867;BME280;67271;59.120;37.970;2023-08-31T02:35:22;100149.00;;;12.72;85.12
77867;BME280;67271;59.120;37.970;2023-08-31T02:37:48;100143.34;;;12.73;84.96
77867;BME280;67271;59.120;37.970;2023-08-31T02:40:17;100140.44;;;12.75;84.98
77867;BME280;67271;59.120;37.970;2023-08-31T02:42:43;100147.34;;;12.77;85.09
77867;BME280;67271;59.120;37.970;2023-08-31T02:45:09;100141.66;;;12.79;84.87
77867;BME280;67271;59.120;37.970;2023-08-31T02:47:37;100136.66;;;12.83;84.81
77867;BME280;67271;59.120;37.970;2023-08-31T02:50:03;100140.00;;;12.85;84.95
77867;BME280;67271;59.120;37.970;2023-08-31T02:52:29;100138.94;;;12.86;84.69
77867;BME280;67271;59.120;37.970;2023-08-31T02:54:55;100141.25;;;12.89;84.76
77867;BME280;67271;59.120;37.970;2023-08-31T02:57:21;100133.06;;;12.95;84.87
77867;BME280;67271;59.120;37.970;2023-08-31T02:59:51;100123.47;;;12.99;84.48
77867;BME280;67271;59.120;37.970;2023-08-31T03:02:16;100119.69;;;13.07;84.48
77867;BME280;67271;59.120;37.970;2023-08-31T03:04:43;100117.81;;;13.14;84.38
77867;BME280;67271;59.120;37.970;2023-08-31T03:07:08;100119.22;;;13.23;84.29
77867;BME280;67271;59.120;37.970;2023-08-31T03:09:39;100125.72;;;13.29;84.09
77867;BME280;67271;59.120;37.970;2023-08-31T03:12:05;100121.72;;;13.38;83.86
77867;BME280;67271;59.120;37.970;2023-08-31T03:14:31;100125.22;;;13.45;83.68
77867;BME280;67271;59.120;37.970;2023-08-31T03:16:57;100130.44;;;13.53;83.53
77867;BME280;67271;59.120;37.970;2023-08-31T03:19:23;100124.94;;;13.60;83.60
77867;BME280;67271;59.120;37.970;2023-08-31T03:21:49;100124.47;;;13.69;83.21
77867;BME280;67271;59.120;37.970;2023-08-31T03:24:15;100127.75;;;13.78;83.26
77867;BME280;67271;59.120;37.970;2023-08-31T03:26:42;100114.13;;;13.84;83.08
77867;BME280;67271;59.120;37.970;2023-08-31T03:29:07;100104.44;;;13.95;82.70
77867;BME280;67271;59.120;37.970;2023-08-31T03:31:33;100099.38;;;14.05;82.74
77867;BME280;67271;59.120;37.970;2023-08-31T03:33:59;100112.91;;;14.12;82.58
77867;BME280;67271;59.120;37.970;2023-08-31T03:36:26;100118.31;;;14.18;82.36
77867;BME280;67271;59.120;37.970;2023-08-31T03:38:51;100131.19;;;14.29;82.37
77867;BME280;67271;59.120;37.970;2023-08-31T03:41:17;100140.34;;;14.42;82.20
77867;BME280;67271;59.120;37.970;2023-08-31T03:43:43;100153.25;;;14.53;81.84
77867;BME280;67271;59.120;37.970;2023-08-31T03:46:10;100156.91;;;14.65;81.51
77867;BME280;67271;59.120;37.970;2023-08-31T03:48:36;100168.63;;;14.90;80.98
77867;BME280;67271;59.120;37.970;2023-08-31T03:51:02;100154.59;;;16.26;77.56
77867;BME280;67271;59.120;37.970;2023-08-31T03:53:28;100152.31;;;17.86;73.46
77867;BME280;67271;59.120;37.970;2023-08-31T03:55:56;100149.44;;;19.05;70.58
77867;BME280;67271;59.120;37.970;2023-08-31T03:58:23;100149.69;;;19.85;68.66
77867;BME280;67271;59.120;37.970;2023-08-31T04:00:51;100136.69;;;20.29;68.05
77867;BME280;67271;59.120;37.970;2023-08-31T04:03:18;100146.41;;;20.69;67.42
77867;BME280;67271;59.120;37.970;2023-08-31T04:05:44;100158.28;;;21.11;66.10
77867;BME280;67271;59.120;37.970;2023-08-31T04:08:11;100154.91;;;21.41;65.49
77867;BME280;67271;59.120;37.970;2023-08-31T04:10:37;100155.38;;;21.90;64.52
77867;BME280;67271;59.120;37.970;2023-08-31T04:13:03;100155.81;;;22.39;63.46
77867;BME280;67271;59.120;37.970;2023-08-31T04:15:29;100182.03;;;22.98;61.97
77867;BME280;67271;59.120;37.970;2023-08-31T04:17:56;100186.69;;;23.38;61.27
77867;BME280;67271;59.120;37.970;2023-08-31T04:20:22;100182.53;;;23.50;60.98
77867;BME280;67271;59.120;37.970;2023-08-31T04:22:48;100183.31;;;23.56;60.68
77867;BME280;67271;59.120;37.970;2023-08-31T04:25:14;100170.53;;;23.80;60.13
77867;BME280;67271;59.120;37.970;2023-08-31T04:27:40;100167.63;;;24.06;59.27
77867;BME280;67271;59.120;37.970;2023-08-31T04:30:06;100164.78;;;24.21;58.88
77867;BME280;67271;59.120;37.970;2023-08-31T04:32:33;100167.44;;;24.41;58.36
77867;BME280;67271;59.120;37.970;2023-08-31T04:34:59;100164.69;;;24.75;57.75
77867;BME280;67271;59.120;37.970;2023-08-31T04:37:24;100161.53;;;24.87;57.28
77867;BME280;67271;59.120;37.970;2023-08-31T04:39:50;100160.03;;;24.71;57.35
77867;BME280;67271;59.120;37.970;2023-08-31T04:42:16;100159.59;;;24.92;56.85
77867;BME280;67271;59.120;37.970;2023-08-31T04:44:42;100143.13;;;25.30;56.05
77867;BME280;67271;59.120;37.970;2023-08-31T04:47:08;100146.31;;;25.42;55.58
77867;BME280;67271;59.120;37.970;2023-08-31T04:49:34;100151.06;;;25.65;55.17
77867;BME280;67271;59.120;37.970;2023-08-31T04:52:00;100154.94;;;25.64;55.16
77867;BME280;67271;59.120;37.970;2023-08-31T04:54:26;100148.81;;;25.67;54.90
77867;BME280;67271;59.120;37.970;2023-08-31T04:56:52;100146.19;;;26.00;54.09
77867;BME280;67271;59.120;37.970;2023-08-31T04:59:18;100143.09;;;26.20;53.59
77867;BME280;67271;59.120;37.970;2023-08-31T05:01:43;100142.38;;;26.33;53.16
77867;BME280;67271;59.120;37.970;2023-08-31T05:04:09;100119.88;;;26.35;53.60
77867;BME280;67271;59.120;37.970;2023-08-31T05:06:35;100111.47;;;26.21;53.44
77867;BME280;67271;59.120;37.970;2023-08-31T05:09:01;100096.91;;;26.48;53.34
77867;BME280;67271;59.120;37.970;2023-08-31T05:11:28;100102.44;;;26.80;52.42
77867;BME280;67271;59.120;37.970;2023-08-31T05:13:53;100106.22;;;26.01;53.86
77867;BME280;67271;59.120;37.970;2023-08-31T05:16:19;100102.31;;;24.83;56.05
77867;BME280;67271;59.120;37.970;2023-08-31T05:18:45;100109.88;;;23.99;57.64
77867;BME280;67271;59.120;37.970;2023-08-31T05:21:11;100100.09;;;24.17;57.22
77867;BME280;67271;59.120;37.970;2023-08-31T05:23:37;100096.47;;;24.21;57.01
77867;BME280;67271;59.120;37.970;2023-08-31T05:26:03;100082.94;;;24.15;56.97
77867;BME280;67271;59.120;37.970;2023-08-31T05:28:29;100092.94;;;23.67;57.77
77867;BME280;67271;59.120;37.970;2023-08-31T05:31:00;100082.63;;;23.13;58.72
77867;BME280;67271;59.120;37.970;2023-08-31T05:33:26;100072.78;;;22.36;60.23
77867;BME280;67271;59.120;37.970;2023-08-31T05:35:54;100069.47;;;22.74;59.15
77867;BME280;67271;59.120;37.970;2023-08-31T05:38:21;100064.34;;;23.27;57.79
77867;BME280;67271;59.120;37.970;2023-08-31T05:40:47;100064.84;;;23.49;56.80
77867;BME280;67271;59.120;37.970;2023-08-31T05:43:13;100070.84;;;23.67;56.44
77867;BME280;67271;59.120;37.970;2023-08-31T05:45:39;100075.94;;;23.29;57.57
77867;BME280;67271;59.120;37.970;2023-08-31T05:48:05;100092.53;;;23.19;57.95
77867;BME280;67271;59.120;37.970;2023-08-31T05:50:31;100089.44;;;23.41;57.52
77867;BME280;67271;59.120;37.970;2023-08-31T05:52:58;100107.94;;;23.45;57.20
77867;BME280;67271;59.120;37.970;2023-08-31T05:55:24;100111.78;;;23.54;57.04
77867;BME280;67271;59.120;37.970;2023-08-31T05:57:49;100106.97;;;22.81;58.39
77867;BME280;67271;59.120;37.970;2023-08-31T06:00:16;100111.06;;;21.97;59.95
77867;BME280;67271;59.120;37.970;2023-08-31T06:02:43;100098.63;;;21.94;59.65
77867;BME280;67271;59.120;37.970;2023-08-31T06:05:12;100103.66;;;22.23;58.99
77867;BME280;67271;59.120;37.970;2023-08-31T06:07:38;100119.41;;;22.63;58.05
77867;BME280;67271;59.120;37.970;2023-08-31T06:10:05;100124.66;;;22.80;57.81
77867;BME280;67271;59.120;37.970;2023-08-31T06:12:31;100130.44;;;22.32;58.62
77867;BME280;67271;59.120;37.970;2023-08-31T06:14:58;100131.66;;;21.84;59.53
77867;BME280;67271;59.120;37.970;2023-08-31T06:17:23;100137.25;;;21.37;60.37
77867;BME280;67271;59.120;37.970;2023-08-31T06:19:49;100118.00;;;20.95;61.52
77867;BME280;67271;59.120;37.970;2023-08-31T06:22:15;100129.38;;;20.72;61.96
77867;BME280;67271;59.120;37.970;2023-08-31T06:24:41;100118.66;;;20.38;62.65
77867;BME280;67271;59.120;37.970;2023-08-31T06:27:08;100106.34;;;19.92;63.75
77867;BME280;67271;59.120;37.970;2023-08-31T06:29:33;100100.97;;;19.76;63.94
77867;BME280;67271;59.120;37.970;2023-08-31T06:31:59;100091.16;;;19.85;64.02
77867;BME280;67271;59.120;37.970;2023-08-31T06:34:25;100093.81;;;19.75;64.16
77867;BME280;67271;59.120;37.970;2023-08-31T06:36:53;100104.31;;;19.56;64.58
77867;BME280;67271;59.120;37.970;2023-08-31T06:39:19;100115.09;;;19.62;64.46
77867;BME280;67271;59.120;37.970;2023-08-31T06:41:45;100109.22;;;19.32;65.33
77867;BME280;67271;59.120;37.970;2023-08-31T06:44:11;100109.75;;;19.12;65.76
77867;BME280;67271;59.120;37.970;2023-08-31T06:46:39;100108.94;;;19.12;65.43
77867;BME280;67271;59.120;37.970;2023-08-31T06:49:05;100104.13;;;19.02;65.75
77867;BME280;67271;59.120;37.970;2023-08-31T06:51:33;100113.75;;;19.05;65.40
77867;BME280;67271;59.120;37.970;2023-08-31T06:54:02;100115.38;;;19.01;65.64
77867;BME280;67271;59.120;37.970;2023-08-31T06:56:33;100123.66;;;19.06;65.61
77867;BME280;67271;59.120;37.970;2023-08-31T06:58:59;100128.00;;;19.02;65.36
77867;BME280;67271;59.120;37.970;2023-08-31T07:01:25;100131.31;;;18.87;65.46
77867;BME280;67271;59.120;37.970;2023-08-31T07:03:52;100117.88;;;18.85;65.18
77867;BME280;67271;59.120;37.970;2023-08-31T07:06:18;100120.44;;;18.92;64.80
77867;BME280;67271;59.120;37.970;2023-08-31T07:08:44;100119.91;;;19.12;64.44
77867;BME280;67271;59.120;37.970;2023-08-31T07:11:11;100114.75;;;19.37;63.80
77867;BME280;67271;59.120;37.970;2023-08-31T07:13:37;100125.63;;;19.70;63.34
77867;BME280;67271;59.120;37.970;2023-08-31T07:16:03;100119.28;;;19.92;63.41
77867;BME280;67271;59.120;37.970;2023-08-31T07:18:29;100118.56;;;20.28;62.64
77867;BME280;67271;59.120;37.970;2023-08-31T07:20:55;100116.38;;;20.62;61.97
77867;BME280;67271;59.120;37.970;2023-08-31T07:23:22;100115.88;;;20.65;61.98
77867;BME280;67271;59.120;37.970;2023-08-31T07:25:48;100118.19;;;20.46;62.00
77867;BME280;67271;59.120;37.970;2023-08-31T07:28:14;100131.09;;;20.46;62.16
77867;BME280;67271;59.120;37.970;2023-08-31T07:30:41;100131.28;;;20.66;61.63
77867;BME280;67271;59.120;37.970;2023-08-31T07:33:07;100128.44;;;20.93;61.31
77867;BME280;67271;59.120;37.970;2023-08-31T07:35:33;100126.09;;;21.12;60.91
77867;BME280;67271;59.120;37.970;2023-08-31T07:37:59;100130.91;;;21.37;60.42
77867;BME280;67271;59.120;37.970;2023-08-31T07:40:24;100135.72;;;21.56;59.93
77867;BME280;67271;59.120;37.970;2023-08-31T07:42:51;100128.81;;;21.54;59.90
77867;BME280;67271;59.120;37.970;2023-08-31T07:45:17;100131.84;;;21.57;59.97
77867;BME280;67271;59.120;37.970;2023-08-31T07:47:43;100120.00;;;21.57;60.27
77867;BME280;67271;59.120;37.970;2023-08-31T07:50:10;100102.19;;;21.90;59.53
77867;BME280;67271;59.120;37.970;2023-08-31T07:52:36;100107.81;;;22.30;58.90
77867;BME280;67271;59.120;37.970;2023-08-31T07:55:03;100113.59;;;22.24;59.15
77867;BME280;67271;59.120;37.970;2023-08-31T07:57:29;100114.66;;;22.18;59.22
77867;BME280;67271;59.120;37.970;2023-08-31T07:59:55;100117.88;;;21.89;59.71
77867;BME280;67271;59.120;37.970;2023-08-31T08:02:21;100103.53;;;21.72;59.85
77867;BME280;67271;59.120;37.970;2023-08-31T08:04:47;100101.78;;;21.51;59.99
77867;BME280;67271;59.120;37.970;2023-08-31T08:07:13;100095.75;;;21.49;60.09
77867;BME280;67271;59.120;37.970;2023-08-31T08:09:39;100093.78;;;21.39;59.77
77867;BME280;67271;59.120;37.970;2023-08-31T08:12:05;100101.13;;;21.29;60.09
77867;BME280;67271;59.120;37.970;2023-08-31T08:14:33;100096.66;;;21.12;60.32
77867;BME280;67271;59.120;37.970;2023-08-31T08:17:01;100092.47;;;21.05;60.87
77867;BME280;67271;59.120;37.970;2023-08-31T08:19:27;100098.47;;;20.97;61.19
77867;BME280;67271;59.120;37.970;2023-08-31T08:21:53;100094.31;;;20.94;61.23
77867;BME280;67271;59.120;37.970;2023-08-31T08:24:19;100101.41;;;20.85;61.47
77867;BME280;67271;59.120;37.970;2023-08-31T08:26:45;100111.22;;;20.71;61.80
77867;BME280;67271;59.120;37.970;2023-08-31T08:29:11;100103.59;;;20.83;61.81
77867;BME280;67271;59.120;37.970;2023-08-31T08:31:37;100124.63;;;20.99;61.31
77867;BME280;67271;59.120;37.970;2023-08-31T08:34:03;100112.84;;;21.09;61.16
77867;BME280;67271;59.120;37.970;2023-08-31T08:36:31;100111.50;;;21.11;61.14
77867;BME280;67271;59.120;37.970;2023-08-31T08:38:57;100120.63;;;21.17;61.05
77867;BME280;67271;59.120;37.970;2023-08-31T08:41:23;100114.78;;;21.13;61.03
77867;BME280;67271;59.120;37.970;2023-08-31T08:43:51;100125.41;;;21.37;60.80
77867;BME280;67271;59.120;37.970;2023-08-31T08:46:17;100126.28;;;21.47;60.42
77867;BME280;67271;59.120;37.970;2023-08-31T08:48:47;100133.84;;;21.72;60.00
77867;BME280;67271;59.120;37.970;2023-08-31T08:51:13;100127.91;;;22.21;59.33
77867;BME280;67271;59.120;37.970;2023-08-31T08:53:43;100125.19;;;22.51;58.71
77867;BME280;67271;59.120;37.970;2023-08-31T08:56:09;100130.69;;;22.71;58.54
77867;BME280;67271;59.120;37.970;2023-08-31T08:58:35;100124.66;;;22.54;59.04
77867;BME280;67271;59.120;37.970;2023-08-31T09:01:01;100127.94;;;22.56;59.07
77867;BME280;67271;59.120;37.970;2023-08-31T09:03:27;100129.31;;;22.54;58.88
77867;BME280;67271;59.120;37.970;2023-08-31T09:05:53;100127.41;;;22.74;58.75
77867;BME280;67271;59.120;37.970;2023-08-31T09:08:27;100123.53;;;22.81;58.52
77867;BME280;67271;59.120;37.970;2023-08-31T09:10:55;100135.09;;;22.57;58.81
77867;BME280;67271;59.120;37.970;2023-08-31T09:13:26;100131.75;;;22.20;59.26
77867;BME280;67271;59.120;37.970;2023-08-31T09:15:53;100131.75;;;22.05;59.61
77867;BME280;67271;59.120;37.970;2023-08-31T09:18:24;100137.16;;;21.84;59.65
77867;BME280;67271;59.120;37.970;2023-08-31T09:20:51;100127.06;;;22.05;59.53
77867;BME280;67271;59.120;37.970;2023-08-31T09:23:17;100127.88;;;22.06;59.43
77867;BME280;67271;59.120;37.970;2023-08-31T09:25:48;100129.56;;;22.27;58.88
77867;BME280;67271;59.120;37.970;2023-08-31T09:28:15;100130.63;;;22.11;59.36
77867;BME280;67271;59.120;37.970;2023-08-31T09:30:45;100142.69;;;21.79;60.25
77867;BME280;67271;59.120;37.970;2023-08-31T09:33:15;100143.97;;;21.61;60.75
77867;BME280;67271;59.120;37.970;2023-08-31T09:35:54;100151.72;;;21.70;60.31
77867;BME280;67271;59.120;37.970;2023-08-31T09:38:21;100148.66;;;21.66;60.20
77867;BME280;67271;59.120;37.970;2023-08-31T09:40:47;100140.50;;;21.86;59.97
77867;BME280;67271;59.120;37.970;2023-08-31T09:43:22;100161.72;;;21.91;59.67
77867;BME280;67271;59.120;37.970;2023-08-31T09:45:50;100157.81;;;21.77;59.87
77867;BME280;67271;59.120;37.970;2023-08-31T09:48:16;100157.75;;;21.67;60.05
77867;BME280;67271;59.120;37.970;2023-08-31T09:50:45;100156.91;;;21.61;60.08
77867;BME280;67271;59.120;37.970;2023-08-31T09:53:12;100146.22;;;21.70;59.89
77867;BME280;67271;59.120;37.970;2023-08-31T09:55:40;100144.75;;;21.52;60.38
77867;BME280;67271;59.120;37.970;2023-08-31T09:58:08;100144.59;;;21.21;60.95
77867;BME280;67271;59.120;37.970;2023-08-31T10:00:35;100146.09;;;21.02;61.50
77867;BME280;67271;59.120;37.970;2023-08-31T10:03:04;100142.50;;;20.97;61.54
77867;BME280;67271;59.120;37.970;2023-08-31T10:05:31;100139.44;;;20.93;61.93
77867;BME280;67271;59.120;37.970;2023-08-31T10:07:57;100142.19;;;20.93;61.94
77867;BME280;67271;59.120;37.970;2023-08-31T10:10:24;100127.81;;;20.81;62.19
77867;BME280;67271;59.120;37.970;2023-08-31T10:12:50;100134.44;;;20.85;62.23
77867;BME280;67271;59.120;37.970;2023-08-31T10:15:18;100126.66;;;20.77;61.91
77867;BME280;67271;59.120;37.970;2023-08-31T10:17:45;100123.44;;;20.85;62.18
77867;BME280;67271;59.120;37.970;2023-08-31T10:20:12;100118.75;;;20.85;61.82
77867;BME280;67271;59.120;37.970;2023-08-31T10:22:39;100125.56;;;20.78;62.06
77867;BME280;67271;59.120;37.970;2023-08-31T10:25:06;100110.72;;;20.74;62.11
77867;BME280;67271;59.120;37.970;2023-08-31T10:27:51;100109.16;;;20.88;61.75
77867;BME280;67271;59.120;37.970;2023-08-31T10:35:59;100115.63;;;20.72;62.12
77867;BME280;67271;59.120;37.970;2023-08-31T10:38:30;100105.72;;;20.71;61.77
77867;BME280;67271;59.120;37.970;2023-08-31T10:41:17;100110.31;;;20.60;61.93
77867;BME280;67271;59.120;37.970;2023-08-31T10:43:54;100109.44;;;20.55;62.01
77867;BME280;67271;59.120;37.970;2023-08-31T10:46:28;100106.41;;;20.51;62.26
77867;BME280;67271;59.120;37.970;2023-08-31T10:48:59;100107.16;;;20.41;62.09
77867;BME280;67271;59.120;37.970;2023-08-31T10:51:32;100102.16;;;20.38;62.44
77867;BME280;67271;59.120;37.970;2023-08-31T10:54:30;100092.81;;;20.39;62.10
77867;BME280;67271;59.120;37.970;2023-08-31T10:59:45;100099.75;;;20.47;61.97
77867;BME280;67271;59.120;37.970;2023-08-31T11:02:35;100098.41;;;20.50;61.51
77867;BME280;67271;59.120;37.970;2023-08-31T11:05:11;100099.84;;;20.57;61.49
77867;BME280;67271;59.120;37.970;2023-08-31T11:07:39;100094.09;;;20.59;61.42
77867;BME280;67271;59.120;37.970;2023-08-31T11:12:47;100090.81;;;20.62;61.25
77867;BME280;67271;59.120;37.970;2023-08-31T11:15:18;100100.44;;;20.64;60.92
77867;BME280;67271;59.120;37.970;2023-08-31T11:17:44;100090.56;;;20.68;60.85
77867;BME280;67271;59.120;37.970;2023-08-31T11:20:16;100093.06;;;20.70;61.12
77867;BME280;67271;59.120;37.970;2023-08-31T11:22:44;100090.06;;;20.71;61.00
77867;BME280;67271;59.120;37.970;2023-08-31T11:25:11;100085.38;;;20.72;61.01
77867;BME280;67271;59.120;37.970;2023-08-31T11:27:37;100101.03;;;20.66;60.89
77867;BME280;67271;59.120;37.970;2023-08-31T11:30:16;100090.53;;;20.63;60.72
77867;BME280;67271;59.120;37.970;2023-08-31T11:32:50;100087.81;;;20.68;60.42
77867;BME280;67271;59.120;37.970;2023-08-31T11:35:20;100094.72;;;20.71;60.43
77867;BME280;67271;59.120;37.970;2023-08-31T11:37:52;100095.25;;;20.68;60.18
77867;BME280;67271;59.120;37.970;2023-08-31T11:40:18;100101.31;;;20.70;60.00
77867;BME280;67271;59.120;37.970;2023-08-31T11:42:44;100095.88;;;20.75;59.80
77867;BME280;67271;59.120;37.970;2023-08-31T11:45:12;100105.81;;;20.81;59.76
77867;BME280;67271;59.120;37.970;2023-08-31T11:47:41;100091.56;;;20.89;59.76
77867;BME280;67271;59.120;37.970;2023-08-31T11:50:10;100090.50;;;20.95;59.68
77867;BME280;67271;59.120;37.970;2023-08-31T11:52:37;100095.75;;;21.02;59.63
77867;BME280;67271;59.120;37.970;2023-08-31T11:55:10;100096.00;;;21.00;59.50
77867;BME280;67271;59.120;37.970;2023-08-31T11:57:36;100097.34;;;20.93;59.39
77867;BME280;67271;59.120;37.970;2023-08-31T12:00:04;100094.84;;;20.91;59.42
77867;BME280;67271;59.120;37.970;2023-08-31T12:02:37;100089.34;;;20.91;59.34
77867;BME280;67271;59.120;37.970;2023-08-31T12:05:04;100079.97;;;20.87;59.65
77867;BME280;67271;59.120;37.970;2023-08-31T12:07:39;100080.50;;;20.84;59.54
77867;BME280;67271;59.120;37.970;2023-08-31T12:10:06;100074.47;;;20.87;59.44
77867;BME280;67271;59.120;37.970;2023-08-31T12:12:32;100079.16;;;20.86;59.67
77867;BME280;67271;59.120;37.970;2023-08-31T12:15:01;100077.81;;;20.94;59.38
77867;BME280;67271;59.120;37.970;2023-08-31T12:17:30;100073.16;;;20.95;59.15
77867;BME280;67271;59.120;37.970;2023-08-31T12:20:03;100075.66;;;21.01;59.42
77867;BME280;67271;59.120;37.970;2023-08-31T12:22:35;100073.97;;;20.95;59.34
77867;BME280;67271;59.120;37.970;2023-08-31T12:25:01;100080.31;;;20.96;59.31
77867;BME280;67271;59.120;37.970;2023-08-31T12:27:27;100078.91;;;20.93;59.25
77867;BME280;67271;59.120;37.970;2023-08-31T12:29:53;100082.81;;;20.97;59.20
77867;BME280;67271;59.120;37.970;2023-08-31T12:32:19;100086.66;;;20.96;59.18
77867;BME280;67271;59.120;37.970;2023-08-31T12:34:45;100103.75;;;21.03;59.17
77867;BME280;67271;59.120;37.970;2023-08-31T12:37:11;100080.34;;;21.06;58.98
77867;BME280;67271;59.120;37.970;2023-08-31T12:39:37;100066.88;;;21.04;59.21
77867;BME280;67271;59.120;37.970;2023-08-31T12:42:04;100066.06;;;21.09;58.97
77867;BME280;67271;59.120;37.970;2023-08-31T12:44:33;100073.81;;;21.12;59.10
77867;BME280;67271;59.120;37.970;2023-08-31T12:46:58;100061.97;;;21.11;59.02
77867;BME280;67271;59.120;37.970;2023-08-31T12:49:24;100062.75;;;21.07;59.26
77867;BME280;67271;59.120;37.970;2023-08-31T12:51:50;100076.50;;;21.07;59.18
77867;BME280;67271;59.120;37.970;2023-08-31T12:54:19;100063.31;;;21.09;58.91
77867;BME280;67271;59.120;37.970;2023-08-31T12:56:45;100065.81;;;21.15;58.93
77867;BME280;67271;59.120;37.970;2023-08-31T12:59:10;100069.19;;;21.17;58.82
77867;BME280;67271;59.120;37.970;2023-08-31T13:01:36;100071.31;;;21.10;58.74